Airfield :
LOGIN :

Register | Disclaimer

   EN    FR    IT 

 










Legend :    VFR   Marginal VFR   IFR   Intensive IFR   Very Intensive IFR
Visi :
Ceiling :
>= 8 km
>= 3000ft
5 to 8 km
1000 to 3000 ft
1500m to 5 km
500 to 1000 ft
800 to 1500m
200 to 500 ft
< 800m
< 200 ft
Symbols :   Thunderstorms  Fog  Heavy snow  Heavy precipitations  Wind > 20 kt
SIGMETs :     Misc.  Thunderstorms  Icing  Turbulence  Mountain Waves  Volcanic Ashes






- Airport Elevation : 144 ft
- IATA code : PGF


LFMP - Perpignan

CURRENT METAR :
  • 071030Z AUTO 31019G29KT 9999 BKN100 21/10 Q1017 NOSIG

EXPIRED METARs :
  • 071000Z AUTO 31019G32KT 9999 SCT100 21/11 Q1017 NOSIG
  • 070930Z AUTO 32020G31KT CAVOK 21/11 Q1016 NOSIG
  • 070900Z AUTO 32019G30KT CAVOK 21/10 Q1016 NOSIG
  • 070830Z AUTO 31019G31KT 290V350 CAVOK 20/10 Q1016 TEMPO 31010KT
  • 070800Z AUTO 31017KT 9999 FEW100 BKN120 19/10 Q1016 NOSIG

TAF TAF LFMP
Valid from the 07 at 09:00 until the 08 at 09:00 UTC


070800Z 0709/0809 31015G25KT 9999 SCT040
TEMPO 0709/0715 31020G30KT
PROB40
TEMPO 0711/0715 31025G35KT
BECMG 0715/0718 VRB04KT
BECMG 0806/0809 04010KT FEW008
ATIS : +33 4 68 63 75 12



MET'MAP, your aeronautical weather chart ! - Copyright ORBIFLY December 2007 - Disclaimer

ORBIFLY MET'MAP TEAM :

Programming & Development : Alexandra Zaïnal
Concept & original design : Baudouin d'Aumeries
Assistance for programming : Marc-Olivier Méhu
Technical & hardware support : Manuel Goepfert

Contact : metmap@orbifly.com




SOURCES & CREDITS :

   NOAA